Time;durP1;ratioP1;P1;durP2;ratioP2;P2;SDS_P1;SDS_P2;PMS_P1;PMS_P2;Temp;Humidity;BMP_temperature;BMP_pressure;BME280_temperature;BME280_humidity;BME280_pressure;Samples;Min_cycle;Max_cycle;Signal;HPM_P1;HPM_P2
2022/06/10 00:00:13;;;;;;;3.57;2.40;;;16.30;99.90;;;;;;5020683;28;20220;-71
2022/06/10 00:02:43;;;;;;;1.80;1.70;;;16.20;99.90;;;;;;5037388;28;20207;-72
2022/06/10 00:05:11;;;;;;;3.43;2.70;;;16.30;99.90;;;;;;5035009;28;20211;-71
2022/06/10 00:07:37;;;;;;;2.67;2.47;;;16.20;99.90;;;;;;5041147;28;20547;-71
2022/06/10 00:10:03;;;;;;;2.40;2.20;;;16.20;99.90;;;;;;5028064;28;20257;-71
2022/06/10 00:12:28;;;;;;;2.67;2.47;;;16.20;99.90;;;;;;5009017;28;20191;-71
2022/06/10 00:14:54;;;;;;;2.80;2.40;;;16.10;99.90;;;;;;5027221;28;20208;-71
2022/06/10 00:17:19;;;;;;;2.87;2.00;;;16.20;99.90;;;;;;5024427;28;20222;-71
2022/06/10 00:19:45;;;;;;;2.13;1.93;;;16.10;99.90;;;;;;5019950;28;20208;-72
2022/06/10 00:22:10;;;;;;;2.20;2.00;;;16.10;99.90;;;;;;5017251;28;20712;-72
2022/06/10 00:24:36;;;;;;;2.50;2.27;;;16.00;99.90;;;;;;5024557;28;20208;-72
2022/06/10 00:27:01;;;;;;;3.00;2.70;;;16.00;99.90;;;;;;5019525;28;20219;-72
2022/06/10 00:29:27;;;;;;;2.67;2.47;;;16.00;99.90;;;;;;5022529;28;20212;-72
2022/06/10 00:31:52;;;;;;;4.53;2.67;;;15.90;99.90;;;;;;5014722;28;20187;-72
2022/06/10 00:34:19;;;;;;;3.13;2.83;;;16.00;99.90;;;;;;5025036;28;20196;-72
2022/06/10 00:36:44;;;;;;;2.33;2.13;;;15.90;99.90;;;;;;5012372;28;20230;-72
2022/06/10 00:39:10;;;;;;;2.73;2.57;;;15.90;99.90;;;;;;5019552;28;20204;-73
2022/06/10 00:41:43;;;;;;;3.97;2.63;;;15.90;99.90;;;;;;5012697;28;20293;-73
2022/06/10 00:44:32;;;;;;;7.50;2.27;;;15.90;99.90;;;;;;5006001;28;20824;-73
2022/06/10 00:46:58;;;;;;;2.70;2.50;;;15.80;99.90;;;;;;5019993;28;20223;-74
2022/06/10 00:49:24;;;;;;;2.67;2.47;;;15.80;99.90;;;;;;5036636;28;20211;-74
2022/06/10 00:51:52;;;;;;;3.47;3.17;;;15.70;99.90;;;;;;5025064;28;20171;-74
2022/06/10 00:54:23;;;;;;;3.13;2.87;;;15.70;99.90;;;;;;5029456;28;20732;-74
2022/06/10 00:56:57;;;;;;;2.00;1.90;;;15.60;99.90;;;;;;5017701;28;20194;-73
2022/06/10 00:59:26;;;;;;;2.87;2.30;;;15.50;99.90;;;;;;5017163;28;20195;-73
2022/06/10 01:02:03;;;;;;;3.13;2.53;;;15.50;99.90;;;;;;5016032;28;20216;-73
2022/06/10 01:04:29;;;;;;;3.10;2.57;;;15.50;99.90;;;;;;5016770;28;20192;-73
2022/06/10 01:06:55;;;;;;;2.97;2.77;;;15.50;99.90;;;;;;5018612;28;20184;-73
2022/06/10 01:09:21;;;;;;;2.70;2.50;;;15.50;99.90;;;;;;5020089;28;20220;-72
2022/06/10 01:11:56;;;;;;;4.13;2.00;;;15.40;99.90;;;;;;5016877;28;20199;-74
2022/06/10 01:14:46;;;;;;;5.80;3.47;;;15.40;99.90;;;;;;5007958;28;20196;-73
2022/06/10 01:17:42;;;;;;;3.63;2.67;;;15.30;99.90;;;;;;5032529;28;20191;-73
2022/06/10 01:20:36;;;;;;;3.00;2.80;;;15.30;99.90;;;;;;5007364;28;20844;-73
2022/06/10 01:23:20;;;;;;;4.30;2.23;;;15.20;99.90;;;;;;5008516;28;20534;-74
2022/06/10 01:26:09;;;;;;;3.10;2.40;;;15.20;99.90;;;;;;5011350;28;20674;-74
2022/06/10 01:29:08;;;;;;;3.23;2.87;;;15.10;99.90;;;;;;5009611;28;20311;-72
2022/06/10 01:31:41;;;;;;;3.90;2.77;;;15.10;99.90;;;;;;5008270;28;20235;-72
2022/06/10 01:34:36;;;;;;;3.00;2.63;;;15.00;99.90;;;;;;5009052;28;20549;-72
2022/06/10 01:37:32;;;;;;;3.73;3.37;;;15.00;99.90;;;;;;5028220;28;20276;-73
2022/06/10 01:40:23;;;;;;;3.10;2.90;;;15.00;99.90;;;;;;5015382;28;20663;-69
2022/06/10 01:42:56;;;;;;;3.83;2.23;;;14.90;99.90;;;;;;5008595;28;20458;-73
2022/06/10 01:45:56;;;;;;;3.13;2.93;;;14.90;99.90;;;;;;5019245;28;20220;-72
2022/06/10 01:48:55;;;;;;;4.43;4.03;;;14.90;99.90;;;;;;5020022;28;20757;-73
2022/06/10 01:51:31;;;;;;;4.60;2.90;;;14.90;99.90;;;;;;5014834;28;20200;-71
2022/06/10 01:54:04;;;;;;;4.83;2.80;;;14.80;99.90;;;;;;5012058;28;20322;-71
2022/06/10 01:56:35;;;;;;;3.00;2.40;;;14.80;99.90;;;;;;5018419;28;20215;-70
2022/06/10 01:59:13;;;;;;;2.70;2.50;;;14.80;99.90;;;;;;5007573;28;20667;-70
2022/06/10 02:01:44;;;;;;;2.60;2.40;;;14.80;99.90;;;;;;5016934;28;20218;-71
2022/06/10 02:04:18;;;;;;;4.03;3.00;;;14.80;99.90;;;;;;5008035;28;20197;-70
2022/06/10 02:06:50;;;;;;;6.20;2.93;;;14.80;99.90;;;;;;5007830;28;20192;-71
2022/06/10 02:09:21;;;;;;;3.47;3.17;;;14.80;99.90;;;;;;5035195;28;20571;-70
2022/06/10 02:11:52;;;;;;;3.87;3.00;;;14.70;99.90;;;;;;5012197;28;20191;-70
2022/06/10 02:14:24;;;;;;;3.70;3.37;;;14.70;99.90;;;;;;5006585;28;20200;-69
2022/06/10 02:16:51;;;;;;;2.80;2.47;;;14.60;99.90;;;;;;5020207;28;20187;-70
2022/06/10 02:19:20;;;;;;;4.63;2.93;;;14.60;99.90;;;;;;5017563;28;20189;-70
2022/06/10 02:22:12;;;;;;;3.83;3.43;;;14.60;99.90;;;;;;5015050;28;20212;-69
2022/06/10 02:24:43;;;;;;;3.30;3.00;;;14.50;99.90;;;;;;5016080;28;20216;-70
2022/06/10 02:27:15;;;;;;;2.80;2.60;;;14.50;99.90;;;;;;5010485;28;20286;-70
2022/06/10 02:29:48;;;;;;;4.73;2.87;;;14.50;99.90;;;;;;5005641;28;20299;-70
2022/06/10 02:32:14;;;;;;;3.67;3.37;;;14.40;99.90;;;;;;5010210;28;21038;-71
2022/06/10 02:34:39;;;;;;;2.80;2.60;;;14.40;99.90;;;;;;5014909;28;20187;-70
2022/06/10 02:37:32;;;;;;;4.33;2.93;;;14.40;99.90;;;;;;5024194;28;20198;-70
2022/06/10 02:40:14;;;;;;;3.57;3.07;;;14.40;99.90;;;;;;5022899;28;20219;-72
2022/06/10 02:43:09;;;;;;;3.13;2.90;;;14.30;99.90;;;;;;5005331;28;20204;-70
2022/06/10 02:46:07;;;;;;;4.20;2.60;;;14.30;99.90;;;;;;5018110;28;20196;-71
2022/06/10 02:48:57;;;;;;;3.20;3.00;;;14.30;99.90;;;;;;5016583;28;20223;-71
2022/06/10 02:51:23;;;;;;;4.00;2.73;;;14.20;99.90;;;;;;5028948;28;20258;-71
2022/06/10 02:53:49;;;;;;;5.33;3.20;;;14.20;99.90;;;;;;5021609;28;20883;-69
2022/06/10 02:56:18;;;;;;;2.70;2.50;;;14.20;99.90;;;;;;5029873;28;20184;-70
2022/06/10 03:01:39;;;;;;;5.13;3.37;;;14.20;99.90;;;;;;5007387;28;20207;-71
2022/06/10 03:04:40;;;;;;;3.47;3.17;;;14.20;99.90;;;;;;5005381;28;20208;-71
2022/06/10 03:07:24;;;;;;;6.53;3.43;;;14.10;99.90;;;;;;5007382;28;20254;-71
2022/06/10 03:10:12;;;;;;;3.73;3.20;;;14.10;99.90;;;;;;5014935;28;20199;-72
2022/06/10 03:12:49;;;;;;;3.40;3.10;;;14.10;99.90;;;;;;5011929;28;20561;-71
2022/06/10 03:15:33;;;;;;;4.50;3.20;;;14.10;99.90;;;;;;5006762;28;20295;-71
2022/06/10 03:18:13;;;;;;;7.40;3.70;;;14.10;99.90;;;;;;5029618;28;20282;-71
2022/06/10 03:20:40;;;;;;;5.20;3.17;;;14.10;99.90;;;;;;5023914;28;20195;-71
2022/06/10 03:23:16;;;;;;;3.43;3.13;;;14.00;99.90;;;;;;5029955;28;20227;-72
2022/06/10 03:26:13;;;;;;;3.30;3.00;;;14.00;99.90;;;;;;5006543;28;20785;-71
2022/06/10 03:28:56;;;;;;;3.40;3.00;;;13.90;99.90;;;;;;5017332;28;20359;-73
2022/06/10 03:31:30;;;;;;;3.13;2.83;;;13.80;99.90;;;;;;5026312;28;20176;-72
2022/06/10 03:34:20;;;;;;;3.50;3.20;;;13.80;99.90;;;;;;5004791;28;20207;-72
2022/06/10 03:36:48;;;;;;;3.83;2.80;;;13.80;99.90;;;;;;5023853;28;20185;-71
2022/06/10 03:39:14;;;;;;;3.53;2.93;;;13.80;99.90;;;;;;5017090;28;20560;-71
2022/06/10 03:41:53;;;;;;;3.57;3.00;;;13.80;99.90;;;;;;5028184;28;20203;-70
2022/06/10 03:44:20;;;;;;;5.23;3.03;;;13.80;99.90;;;;;;5025750;28;20606;-71
2022/06/10 03:46:49;;;;;;;3.83;3.50;;;13.80;99.90;;;;;;5030241;28;20204;-71
2022/06/10 03:49:17;;;;;;;3.83;3.40;;;13.90;99.90;;;;;;5006165;28;20212;-70
2022/06/10 03:51:44;;;;;;;4.87;3.63;;;13.90;99.90;;;;;;5023599;28;21006;-70
2022/06/10 03:54:13;;;;;;;4.10;3.30;;;14.00;99.90;;;;;;5018335;28;20215;-70
2022/06/10 03:56:38;;;;;;;5.97;4.00;;;14.00;99.90;;;;;;5027437;28;20900;-70
2022/06/10 03:59:04;;;;;;;5.23;3.33;;;14.00;99.90;;;;;;5012581;28;20658;-70
2022/06/10 04:01:29;;;;;;;7.90;3.30;;;14.00;99.90;;;;;;5044161;28;20699;-70
2022/06/10 04:03:55;;;;;;;6.20;3.87;;;14.00;99.90;;;;;;5017529;28;20581;-71
2022/06/10 04:06:20;;;;;;;6.40;3.70;;;14.00;99.90;;;;;;5028694;28;20941;-70
2022/06/10 04:08:46;;;;;;;5.80;3.93;;;14.10;99.90;;;;;;5022696;28;20287;-71
2022/06/10 04:11:11;;;;;;;5.87;4.83;;;14.10;99.90;;;;;;5037136;28;20217;-71
2022/06/10 04:13:37;;;;;;;5.23;3.77;;;14.10;99.90;;;;;;5018749;28;20191;-71
2022/06/10 04:16:03;;;;;;;6.77;4.67;;;14.20;99.90;;;;;;5031235;28;20192;-71
2022/06/10 04:18:28;;;;;;;6.97;4.53;;;14.20;99.90;;;;;;5017152;28;20302;-73
2022/06/10 04:20:55;;;;;;;7.13;4.70;;;14.20;99.90;;;;;;5036495;28;20244;-73
2022/06/10 04:23:20;;;;;;;9.17;4.37;;;14.20;99.90;;;;;;5020978;28;20215;-70
2022/06/10 04:25:46;;;;;;;6.73;4.37;;;14.20;99.90;;;;;;5033678;28;20195;-73
2022/06/10 04:28:13;;;;;;;5.80;4.50;;;14.20;99.90;;;;;;5016760;28;20761;-73
2022/06/10 04:30:42;;;;;;;7.43;4.90;;;14.20;99.90;;;;;;5025614;28;20199;-74
2022/06/10 04:33:08;;;;;;;6.50;4.57;;;14.30;99.90;;;;;;5023166;28;20200;-72
2022/06/10 04:35:35;;;;;;;5.53;4.30;;;14.30;99.90;;;;;;5041168;28;20189;-71
2022/06/10 04:38:02;;;;;;;6.00;4.20;;;14.40;99.90;;;;;;5027411;28;20199;-71
2022/06/10 04:40:30;;;;;;;4.77;4.33;;;14.40;99.90;;;;;;5038213;28;20333;-72
2022/06/10 04:42:56;;;;;;;4.83;4.37;;;14.40;99.90;;;;;;5037729;28;20725;-71
2022/06/10 04:45:26;;;;;;;7.13;6.43;;;14.40;99.90;;;;;;5036664;28;20199;-71
2022/06/10 04:47:55;;;;;;;4.10;3.80;;;14.40;99.90;;;;;;5016351;28;20330;-72
2022/06/10 04:50:23;;;;;;;7.87;4.33;;;14.40;99.90;;;;;;5031656;28;20345;-70
2022/06/10 04:52:49;;;;;;;4.63;4.23;;;14.50;99.90;;;;;;5029256;28;20242;-72
2022/06/10 04:55:14;;;;;;;8.77;4.57;;;14.60;99.90;;;;;;5032020;28;20334;-71
2022/06/10 04:57:40;;;;;;;4.27;3.90;;;14.60;99.90;;;;;;5031511;28;20307;-71
2022/06/10 05:00:10;;;;;;;4.63;4.00;;;14.60;99.90;;;;;;5027193;28;20273;-71
2022/06/10 05:02:35;;;;;;;6.93;4.33;;;14.70;99.90;;;;;;5033184;28;20303;-71
2022/06/10 05:05:01;;;;;;;9.47;4.37;;;14.80;99.90;;;;;;5021270;28;20291;-71
2022/06/10 05:07:26;;;;;;;6.30;4.37;;;14.80;99.90;;;;;;5036770;28;20298;-70
2022/06/10 05:09:52;;;;;;;6.20;4.10;;;14.90;99.90;;;;;;5017464;28;20192;-71
2022/06/10 05:12:18;;;;;;;6.67;4.03;;;15.00;99.90;;;;;;5034005;28;20279;-70
2022/06/10 05:14:43;;;;;;;4.37;3.90;;;15.00;99.90;;;;;;5013581;28;20184;-70
2022/06/10 05:17:09;;;;;;;4.43;3.77;;;15.10;99.90;;;;;;5025535;28;20188;-71
2022/06/10 05:19:35;;;;;;;9.53;3.67;;;15.10;99.90;;;;;;5008582;28;20174;-71
2022/06/10 05:22:00;;;;;;;6.47;3.40;;;15.10;99.90;;;;;;5040066;28;20676;-72
2022/06/10 05:24:26;;;;;;;5.73;3.27;;;15.10;99.90;;;;;;5013920;28;20277;-71
2022/06/10 05:26:51;;;;;;;5.37;3.33;;;15.10;99.90;;;;;;5044769;28;20202;-70
2022/06/10 05:29:17;;;;;;;7.43;3.20;;;15.20;99.90;;;;;;5011681;28;20276;-71
2022/06/10 05:31:42;;;;;;;3.33;3.03;;;15.30;99.90;;;;;;5040641;28;20199;-71
2022/06/10 05:36:53;;;;;;;3.57;2.53;;;15.40;99.90;;;;;;5007750;28;20211;-73
2022/06/10 05:39:18;;;;;;;3.17;2.87;;;15.60;99.90;;;;;;5021004;28;20558;-72
2022/06/10 05:44:28;;;;;;;3.67;2.20;;;15.70;99.90;;;;;;5008869;28;20207;-73
2022/06/10 05:46:55;;;;;;;3.57;2.07;;;15.70;99.90;;;;;;5043293;28;20700;-73
2022/06/10 05:49:21;;;;;;;4.83;1.80;;;15.80;99.90;;;;;;5019505;28;20223;-71
2022/06/10 05:51:47;;;;;;;3.10;1.97;;;15.80;99.90;;;;;;5027461;28;20196;-69
2022/06/10 05:54:14;;;;;;;3.37;2.10;;;15.80;99.90;;;;;;5025785;28;20545;-72
2022/06/10 05:56:40;;;;;;;3.30;1.63;;;15.80;99.90;;;;;;5023071;28;20231;-71
2022/06/10 05:59:06;;;;;;;9.40;4.40;;;15.90;99.90;;;;;;5012165;28;20287;-71
2022/06/10 06:01:33;;;;;;;3.73;3.03;;;16.00;99.90;;;;;;5046732;28;20696;-71
2022/06/10 06:03:58;;;;;;;3.43;1.43;;;16.10;99.90;;;;;;5015550;28;20211;-69
2022/06/10 06:06:24;;;;;;;2.30;1.70;;;16.20;99.90;;;;;;5034095;28;20563;-70
2022/06/10 06:08:50;;;;;;;2.43;1.43;;;16.30;99.90;;;;;;5011932;28;20216;-72
2022/06/10 06:11:17;;;;;;;5.40;2.27;;;16.30;99.90;;;;;;5030999;28;20406;-70
2022/06/10 06:13:42;;;;;;;2.90;1.80;;;16.40;99.90;;;;;;5012580;28;20691;-72
2022/06/10 06:16:11;;;;;;;3.00;1.70;;;16.50;99.90;;;;;;5044416;28;20191;-71
2022/06/10 06:18:37;;;;;;;5.73;1.50;;;16.50;99.90;;;;;;5024624;28;20208;-69
2022/06/10 06:21:04;;;;;;;2.37;1.40;;;16.50;99.90;;;;;;5031121;28;20193;-72
2022/06/10 06:23:29;;;;;;;3.57;1.50;;;16.60;99.90;;;;;;5020789;28;20212;-70
2022/06/10 06:25:55;;;;;;;2.97;1.60;;;16.60;99.90;;;;;;5033174;28;20186;-72
2022/06/10 06:28:20;;;;;;;7.50;2.30;;;16.70;99.90;;;;;;5022382;28;20211;-71
2022/06/10 06:30:46;;;;;;;4.67;2.27;;;16.70;99.90;;;;;;5035132;28;20220;-71
2022/06/10 06:33:12;;;;;;;4.30;1.90;;;16.70;99.90;;;;;;5018157;28;20201;-72
2022/06/10 06:35:38;;;;;;;4.37;2.00;;;16.90;99.90;;;;;;5031390;28;20192;-71
2022/06/10 06:38:04;;;;;;;3.17;1.93;;;17.10;99.90;;;;;;5026715;28;20203;-71
2022/06/10 06:40:31;;;;;;;1.57;1.47;;;17.10;99.90;;;;;;5036264;28;20289;-70
2022/06/10 06:42:56;;;;;;;1.93;1.67;;;17.20;99.90;;;;;;5025850;28;20252;-71
2022/06/10 06:45:23;;;;;;;4.10;1.27;;;17.20;99.90;;;;;;5029077;28;20196;-70
2022/06/10 06:47:49;;;;;;;6.73;1.80;;;17.20;99.90;;;;;;5027222;28;20247;-74
2022/06/10 06:50:18;;;;;;;3.50;1.40;;;17.20;99.90;;;;;;5033153;28;20226;-74
2022/06/10 06:52:43;;;;;;;3.93;1.60;;;17.30;99.90;;;;;;5018020;28;20674;-74
2022/06/10 06:55:09;;;;;;;6.17;1.70;;;17.40;99.90;;;;;;5024808;28;20224;-73
2022/06/10 06:57:35;;;;;;;2.40;1.60;;;17.40;99.90;;;;;;5028670;28;20351;-74
2022/06/10 07:00:06;;;;;;;5.90;1.60;;;17.50;99.90;;;;;;5012275;28;20702;-75
2022/06/10 07:02:33;;;;;;;3.70;1.50;;;17.60;99.90;;;;;;5013381;28;20205;-70
2022/06/10 07:04:58;;;;;;;3.63;1.60;;;17.60;99.90;;;;;;5014398;28;20225;-74
2022/06/10 07:07:24;;;;;;;2.87;1.23;;;17.70;99.90;;;;;;5033848;28;20219;-74
2022/06/10 07:09:50;;;;;;;4.20;1.50;;;17.90;99.90;;;;;;5020826;28;20246;-74
2022/06/10 07:12:15;;;;;;;3.53;1.43;;;18.10;99.90;;;;;;5015825;28;20207;-75
2022/06/10 07:14:41;;;;;;;2.30;1.67;;;18.10;99.90;;;;;;5015966;28;20185;-74
2022/06/10 07:17:06;;;;;;;5.67;2.60;;;18.30;99.90;;;;;;5016274;28;20712;-77
2022/06/10 07:19:32;;;;;;;3.13;1.57;;;18.40;99.90;;;;;;5016234;28;20210;-73
2022/06/10 07:21:58;;;;;;;3.43;1.60;;;18.50;99.90;;;;;;5013911;28;20188;-73
2022/06/10 07:24:23;;;;;;;3.07;1.30;;;18.50;99.90;;;;;;5012538;28;20647;-75
2022/06/10 07:26:49;;;;;;;4.07;1.83;;;18.50;99.90;;;;;;5018820;28;20191;-74
2022/06/10 07:29:15;;;;;;;5.93;1.70;;;18.60;99.90;;;;;;5031218;28;20209;-73
2022/06/10 07:31:41;;;;;;;3.93;1.30;;;18.70;99.90;;;;;;5018908;28;20549;-73
2022/06/10 07:34:08;;;;;;;2.47;1.73;;;18.70;99.50;;;;;;5022414;28;20201;-74
2022/06/10 07:36:33;;;;;;;6.80;1.83;;;18.70;99.40;;;;;;5039252;28;20230;-72
2022/06/10 07:38:58;;;;;;;6.00;1.67;;;18.80;99.40;;;;;;5016498;28;20291;-73
2022/06/10 07:44:08;;;;;;;2.80;1.30;;;18.80;99.10;;;;;;5005268;28;20222;-70
2022/06/10 07:46:33;;;;;;;3.70;1.50;;;18.90;99.10;;;;;;5034814;28;20202;-73
2022/06/10 07:48:59;;;;;;;2.97;1.60;;;18.90;99.10;;;;;;5014894;28;20231;-75
2022/06/10 07:51:25;;;;;;;4.07;1.93;;;19.00;99.00;;;;;;5032325;28;20659;-75
2022/06/10 07:53:56;;;;;;;3.60;2.17;;;18.80;99.30;;;;;;5017240;28;20230;-73
2022/06/10 07:56:22;;;;;;;5.47;1.63;;;18.90;99.50;;;;;;5030239;28;20191;-73
2022/06/10 07:58:49;;;;;;;4.00;1.43;;;19.00;99.20;;;;;;5016099;28;20209;-72
2022/06/10 08:01:15;;;;;;;2.87;1.70;;;19.10;98.90;;;;;;5029308;28;20559;-73
2022/06/10 08:03:41;;;;;;;3.57;1.70;;;19.20;99.60;;;;;;5017744;28;20205;-73
2022/06/10 08:06:06;;;;;;;2.07;1.13;;;19.30;99.00;;;;;;5034305;28;20203;-72
2022/06/10 08:08:32;;;;;;;3.70;1.93;;;19.30;99.00;;;;;;5020106;28;20223;-74
2022/06/10 08:10:57;;;;;;;3.30;1.70;;;19.30;99.30;;;;;;5022939;28;20192;-75
2022/06/10 08:13:24;;;;;;;4.93;1.60;;;19.40;99.10;;;;;;5015729;28;20199;-73
2022/06/10 08:15:49;;;;;;;3.67;2.00;;;19.60;98.50;;;;;;5041052;28;20206;-74
2022/06/10 08:18:17;;;;;;;4.10;1.77;;;19.70;98.30;;;;;;5016601;28;20204;-75
2022/06/10 08:23:29;;;;;;;4.70;2.03;;;19.50;96.80;;;;;;5017464;28;20224;-72
2022/06/10 08:25:57;;;;;;;5.53;2.03;;;19.50;97.30;;;;;;5035161;28;20205;-72
2022/06/10 08:28:24;;;;;;;6.40;2.40;;;19.50;96.50;;;;;;5021061;28;20207;-73
2022/06/10 08:30:50;;;;;;;6.53;1.43;;;19.50;96.30;;;;;;5025167;28;20282;-73
2022/06/10 08:33:15;;;;;;;5.50;1.80;;;19.50;96.60;;;;;;5018317;28;20605;-73
2022/06/10 08:35:41;;;;;;;2.37;1.43;;;19.60;95.20;;;;;;5022605;28;20284;-72
2022/06/10 08:38:10;;;;;;;5.07;1.57;;;19.60;95.20;;;;;;5021341;28;20203;-72
2022/06/10 08:40:52;;;;;;;5.17;1.77;;;19.60;95.00;;;;;;5034912;28;20268;-72
2022/06/10 08:43:55;;;;;;;2.83;2.07;;;19.70;94.60;;;;;;5030114;28;20252;-72
2022/06/10 08:46:58;;;;;;;6.57;2.70;;;19.70;95.00;;;;;;5035458;28;20552;-71
2022/06/10 08:50:00;;;;;;;3.67;1.17;;;19.90;94.20;;;;;;5005077;28;20229;-75
2022/06/10 08:52:39;;;;;;;5.60;1.70;;;20.00;94.30;;;;;;5003181;28;20313;-71
2022/06/10 08:55:42;;;;;;;2.00;1.40;;;20.00;94.20;;;;;;5016789;28;20233;-71
2022/06/10 08:58:34;;;;;;;3.57;1.60;;;20.10;93.70;;;;;;5017536;28;20538;-71
2022/06/10 09:01:06;;;;;;;8.03;2.20;;;20.10;93.80;;;;;;5024187;28;20203;-71
2022/06/10 09:04:11;;;;;;;4.57;2.07;;;20.10;93.50;;;;;;5003728;28;20620;-71
2022/06/10 09:06:47;;;;;;;4.07;1.40;;;20.20;93.90;;;;;;5002080;28;20218;-73
2022/06/10 09:09:15;;;;;;;3.63;1.50;;;20.30;93.50;;;;;;5008922;28;20370;-73
2022/06/10 09:11:53;;;;;;;4.70;1.60;;;20.40;92.70;;;;;;5036237;28;20190;-71
2022/06/10 09:14:24;;;;;;;2.97;1.27;;;20.40;92.60;;;;;;5002277;28;20231;-68
2022/06/10 09:17:00;;;;;;;4.60;1.70;;;20.40;92.70;;;;;;5033296;28;20195;-67
2022/06/10 09:19:44;;;;;;;4.60;1.80;;;20.50;92.20;;;;;;5012519;28;20215;-72
2022/06/10 09:22:32;;;;;;;3.47;1.37;;;20.50;91.10;;;;;;5037361;28;20274;-71
2022/06/10 09:25:23;;;;;;;5.27;1.90;;;20.50;91.20;;;;;;5006577;28;20223;-70
2022/06/10 09:27:53;;;;;;;5.07;1.90;;;20.50;91.20;;;;;;5008041;28;20314;-70
2022/06/10 09:30:24;;;;;;;3.23;2.00;;;20.50;91.10;;;;;;5018635;28;20220;-70
2022/06/10 09:33:17;;;;;;;3.90;1.80;;;20.50;91.00;;;;;;5007743;28;20207;-70
2022/06/10 09:36:03;;;;;;;9.10;2.23;;;20.50;90.70;;;;;;5027601;28;20305;-70
2022/06/10 09:38:47;;;;;;;4.97;1.80;;;20.60;90.90;;;;;;5005458;28;20246;-70
2022/06/10 09:41:34;;;;;;;4.27;1.60;;;20.80;90.10;;;;;;5021141;28;20191;-70
2022/06/10 09:44:28;;;;;;;6.67;2.10;;;20.70;90.30;;;;;;5017796;28;20214;-70
2022/06/10 09:46:58;;;;;;;5.03;1.80;;;20.70;89.60;;;;;;5026711;28;20288;-70
2022/06/10 09:49:42;;;;;;;4.70;1.73;;;20.70;87.30;;;;;;5025611;28;20694;-70
2022/06/10 09:52:27;;;;;;;3.13;1.40;;;20.80;87.20;;;;;;5031693;28;20203;-70
2022/06/10 09:55:19;;;;;;;3.50;1.03;;;20.90;87.30;;;;;;5022524;28;20719;-70
2022/06/10 09:57:59;;;;;;;7.43;2.30;;;21.10;83.20;;;;;;5019583;28;20223;-71
2022/06/10 10:00:36;;;;;;;3.30;1.30;;;21.30;82.60;;;;;;5005664;28;20218;-71
2022/06/10 10:03:20;;;;;;;3.60;1.20;;;21.30;82.00;;;;;;5027289;28;20179;-70
2022/06/10 10:06:15;;;;;;;4.50;1.80;;;21.20;83.50;;;;;;5005972;28;20826;-70
2022/06/10 10:09:02;;;;;;;3.03;1.30;;;21.20;83.40;;;;;;5018023;28;20211;-71
2022/06/10 10:11:45;;;;;;;2.87;1.10;;;21.20;82.00;;;;;;5014474;28;20207;-71
2022/06/10 10:14:35;;;;;;;3.97;1.10;;;21.20;80.20;;;;;;5007693;28;20184;-70
2022/06/10 10:17:31;;;;;;;5.27;2.07;;;21.30;78.40;;;;;;5012436;28;20259;-71
2022/06/10 10:20:02;;;;;;;1.97;1.30;;;21.40;76.70;;;;;;5012476;28;20270;-71
2022/06/10 10:22:47;;;;;;;3.67;1.63;;;21.40;78.70;;;;;;5009831;28;20235;-71
2022/06/10 10:25:20;;;;;;;2.90;1.63;;;21.50;79.50;;;;;;5007749;28;20827;-71
2022/06/10 10:27:47;;;;;;;2.07;1.03;;;21.60;79.30;;;;;;5005839;28;20211;-71
2022/06/10 10:30:18;;;;;;;3.15;1.67;;;21.50;78.50;;;;;;5024953;28;20194;-69
2022/06/10 10:32:49;;;;;;;5.37;1.90;;;21.60;79.50;;;;;;5005834;28;20258;-69
2022/06/10 10:35:19;;;;;;;5.93;1.10;;;21.70;77.50;;;;;;5007293;28;20191;-71
2022/06/10 10:37:56;;;;;;;4.72;1.67;;;21.80;76.90;;;;;;5009091;28;21829;-70
2022/06/10 10:40:30;;;;;;;5.87;1.60;;;21.80;76.50;;;;;;5039292;28;20199;-71
2022/06/10 10:42:59;;;;;;;2.17;1.23;;;21.80;75.80;;;;;;5007633;28;20199;-71
2022/06/10 10:45:33;;;;;;;4.35;1.60;;;21.90;75.60;;;;;;5034437;28;20198;-71
2022/06/10 10:48:05;;;;;;;2.63;1.50;;;21.90;76.00;;;;;;5007362;28;20216;-71
2022/06/10 10:50:37;;;;;;;7.57;1.90;;;22.10;77.90;;;;;;5025543;28;20196;-72
2022/06/10 10:53:28;;;;;;;5.20;1.67;;;22.20;75.00;;;;;;5013444;28;20722;-71
2022/06/10 10:55:57;;;;;;;3.93;1.87;;;22.20;74.00;;;;;;5028282;28;20215;-70
2022/06/10 10:58:38;;;;;;;6.35;1.55;;;22.30;75.00;;;;;;5017468;28;20564;-72
2022/06/10 11:01:08;;;;;;;2.17;1.90;;;22.50;75.60;;;;;;5010138;28;20219;-72
2022/06/10 11:03:42;;;;;;;6.15;2.40;;;22.90;75.80;;;;;;5013326;28;20198;-71
2022/06/10 11:06:29;;;;;;;4.15;1.35;;;23.30;74.00;;;;;;5010625;28;20203;-71
2022/06/10 11:08:58;;;;;;;5.57;1.77;;;23.90;71.60;;;;;;5030872;28;20205;-71
2022/06/10 11:11:44;;;;;;;4.43;2.03;;;24.70;68.70;;;;;;5020254;28;20210;-71
2022/06/10 11:14:28;;;;;;;8.02;2.72;;;25.10;68.60;;;;;;5016790;28;20197;-71
2022/06/10 11:17:11;;;;;;;5.10;2.17;;;25.30;66.10;;;;;;5017649;28;20208;-71
2022/06/10 11:19:37;;;;;;;4.78;1.60;;;25.40;63.00;;;;;;5016750;28;20185;-71
2022/06/10 11:22:21;;;;;;;4.47;1.33;;;25.30;60.90;;;;;;5017276;28;20208;-71
2022/06/10 11:25:15;;;;;;;4.75;1.60;;;25.50;61.10;;;;;;5017838;28;20210;-72
2022/06/10 11:28:00;;;;;;;2.80;1.20;;;25.70;60.90;;;;;;5012033;28;20219;-72
2022/06/10 11:30:36;;;;;;;2.13;1.13;;;25.90;60.20;;;;;;5006467;28;20191;-72
2022/06/10 11:33:16;;;;;;;6.03;1.23;;;26.20;58.90;;;;;;5006360;28;20188;-72
2022/06/10 11:35:59;;;;;;;3.60;1.60;;;26.60;57.60;;;;;;5006304;28;20195;-72
2022/06/10 11:38:28;;;;;;;4.10;1.70;;;26.80;55.80;;;;;;5018122;28;20625;-72
2022/06/10 11:40:57;;;;;;;4.20;1.30;;;26.80;55.80;;;;;;5027576;28;20207;-71
2022/06/10 11:43:28;;;;;;;4.60;1.88;;;26.80;56.30;;;;;;5018289;28;20187;-71
2022/06/10 11:46:18;;;;;;;6.28;2.17;;;27.10;55.60;;;;;;5004471;28;20211;-71
2022/06/10 11:49:12;;;;;;;3.45;1.48;;;27.30;55.10;;;;;;5014384;28;20211;-73
2022/06/10 11:51:46;;;;;;;7.95;1.92;;;27.50;54.10;;;;;;5011001;28;20689;-72
2022/06/10 11:54:36;;;;;;;3.92;1.58;;;28.10;53.90;;;;;;5016051;28;20196;-72
2022/06/10 12:00:20;;;;;;;3.28;1.63;;;29.10;49.40;;;;;;5005848;28;20251;-72
2022/06/10 12:03:00;;;;;;;4.88;2.30;;;29.40;49.80;;;;;;5004097;28;20733;-73
2022/06/10 12:05:41;;;;;;;2.53;1.25;;;29.50;48.90;;;;;;5005544;28;20559;-75
2022/06/10 12:08:22;;;;;;;2.30;1.40;;;30.30;47.70;;;;;;5011249;28;20215;-71
2022/06/10 12:10:51;;;;;;;4.60;1.55;;;31.00;48.10;;;;;;5004037;28;20869;-71
2022/06/10 12:13:16;;;;;;;3.13;1.33;;;31.70;44.10;;;;;;5017925;28;20270;-71
2022/06/10 12:15:50;;;;;;;4.38;1.77;;;31.80;44.30;;;;;;5025815;28;20669;-71
2022/06/10 12:18:16;;;;;;;2.38;1.50;;;32.20;42.10;;;;;;5012522;28;20187;-71
2022/06/10 12:20:44;;;;;;;3.17;1.30;;;32.00;41.70;;;;;;5029817;28;20195;-72
2022/06/10 12:23:49;;;;;;;2.97;1.33;;;31.70;42.10;;;;;;5011723;28;20199;-72
2022/06/10 12:26:47;;;;;;;3.17;1.48;;;32.20;42.50;;;;;;4980017;28;20741;-71
2022/06/10 12:29:15;;;;;;;3.10;1.40;;;32.60;42.80;;;;;;5016069;28;20301;-71
2022/06/10 12:32:00;;;;;;;2.05;1.10;;;33.20;41.10;;;;;;5027997;28;20290;-72
2022/06/10 12:34:38;;;;;;;3.75;1.75;;;33.40;38.70;;;;;;5005763;28;20546;-71
2022/06/10 12:37:28;;;;;;;6.93;1.73;;;32.50;38.70;;;;;;5003628;28;20637;-72
2022/06/10 12:40:05;;;;;;;5.25;1.83;;;31.70;40.50;;;;;;5005620;28;20196;-72
2022/06/10 12:42:45;;;;;;;2.38;1.20;;;32.00;41.10;;;;;;5003703;28;20238;-72
2022/06/10 12:45:46;;;;;;;5.32;1.38;;;32.50;39.40;;;;;;5015612;28;20270;-72
2022/06/10 12:48:20;;;;;;;2.22;1.33;;;32.70;38.70;;;;;;5012620;28;20226;-72
2022/06/10 12:51:01;;;;;;;2.88;1.50;;;33.00;36.50;;;;;;5006272;28;20188;-72
2022/06/10 12:53:38;;;;;;;3.53;1.60;;;33.20;36.10;;;;;;5009473;28;20235;-72
2022/06/10 12:56:25;;;;;;;3.13;1.35;;;33.50;35.40;;;;;;5011752;28;20218;-72
2022/06/10 12:59:11;;;;;;;2.60;1.27;;;33.30;35.70;;;;;;5015100;28;20183;-72
2022/06/10 13:01:36;;;;;;;2.80;1.20;;;33.40;35.70;;;;;;5016545;28;20261;-72
2022/06/10 13:04:15;;;;;;;2.08;1.60;;;33.20;34.40;;;;;;5025147;28;20193;-72
2022/06/10 13:06:44;;;;;;;3.50;1.70;;;33.50;34.30;;;;;;5029279;28;20199;-72
2022/06/10 13:09:12;;;;;;;2.60;1.23;;;33.30;35.60;;;;;;5041414;28;20199;-72
2022/06/10 13:12:00;;;;;;;2.20;1.42;;;33.70;32.80;;;;;;5026583;28;20243;-72
2022/06/10 13:14:25;;;;;;;3.83;1.60;;;33.10;32.60;;;;;;5008395;28;20275;-71
2022/06/10 13:17:00;;;;;;;1.55;1.20;;;32.90;33.10;;;;;;5015828;28;20767;-71
2022/06/10 13:19:49;;;;;;;3.53;1.42;;;32.30;32.40;;;;;;5034947;28;20364;-71
2022/06/10 13:22:20;;;;;;;2.25;1.33;;;32.20;34.60;;;;;;5007006;28;20282;-73
2022/06/10 13:24:51;;;;;;;1.38;1.23;;;32.90;35.80;;;;;;5044622;28;20721;-71
2022/06/10 13:27:29;;;;;;;2.42;1.48;;;34.20;34.10;;;;;;5019347;28;20270;-71
2022/06/10 13:30:16;;;;;;;3.13;1.48;;;35.00;32.90;;;;;;5019989;28;20218;-72
2022/06/10 13:32:45;;;;;;;3.35;1.17;;;35.30;31.80;;;;;;5007973;28;20562;-71
2022/06/10 13:35:17;;;;;;;2.95;2.30;;;35.00;31.70;;;;;;5033138;28;20191;-71
2022/06/10 13:37:43;;;;;;;2.30;1.38;;;34.30;31.50;;;;;;5011701;28;20635;-72